Cosco Nagoya — 3ESJ8 — position and weather

sailwx.info

Track history (hours):
 
Tides and Currents Weather Stations Pressure Air Temp Water Temp Dewpoint Dewpoint Depression Visibility Wind Speed Wind Dir Waves Ship Positions

Cosco Nagoya

Last reported at 2015-Apr-14 12:06 UTC. Time now 2015-Apr-21 19:04 UTC.
Position N 38°40' W 073°57'.

Length 260 m; draft 10.7 m.

Type: Cargo ship. MMSI: 370320000.

Date/timePositionNaut miles runAvg speedWind from/ knotsBaromVisibWave heightAir tempDewpointWater temp
2015-Apr-14 12:06N 38°40' W 073°57'1117.9
2015-Apr-14 11:30N 38°50' W 073°56'1717.8
2015-Apr-14 10:33N 39°07' W 073°55'1817.6
2015-Apr-14 09:33N 39°25' W 073°54'1717.3
2015-Apr-14 08:33N 39°42' W 073°52'1717.4
2015-Apr-14 07:33N 39°59' W 073°51'1413.7
2015-Apr-14 06:33N 40°13' W 073°49'10 9.5
2015-Apr-14 05:33N 40°22' W 073°49'8 8.1
2015-Apr-14 04:34N 40°29' W 073°54'1211.7
2015-Apr-14 03:33N 40°38' W 074°04'5 4.5
2015-Apr-14 02:32N 40°41' W 074°09'0 0.0
2015-Apr-14 01:29N 40°41' W 074°09'0 0.0
2015-Apr-14 00:32N 40°41' W 074°09'0 0.0
2015-Apr-13 23:32N 40°41' W 074°09'0 0.0
2015-Apr-13 22:32N 40°41' W 074°09'0 0.0
2015-Apr-13 21:32N 40°41' W 074°09'0 0.0
2015-Apr-13 20:32N 40°41' W 074°09'0 0.0
2015-Apr-13 19:32N 40°41' W 074°09'0 0.0
2015-Apr-13 18:32N 40°41' W 074°09'0 0.0
2015-Apr-13 17:32N 40°41' W 074°09'0 0.0
2015-Apr-13 16:32N 40°41' W 074°09'0 0.0
2015-Apr-13 15:32N 40°41' W 074°09'0 0.0
2015-Apr-13 14:32N 40°41' W 074°09'0 0.0
2015-Apr-13 13:32N 40°41' W 074°09'0 0.0
2015-Apr-13 12:32N 40°41' W 074°09'0 0.0
2015-Apr-13 11:32N 40°41' W 074°09'0 0.0
2015-Apr-13 10:32N 40°41' W 074°09'0 0.0
2015-Apr-13 09:32N 40°41' W 074°09'0 0.0
2015-Apr-13 08:32N 40°41' W 074°09'0 0.0
2015-Apr-13 07:32N 40°41' W 074°09'0 0.0
2015-Apr-13 06:32N 40°41' W 074°09'0 0.0
2015-Apr-13 05:32N 40°41' W 074°09'0 0.0
2015-Apr-13 04:32N 40°41' W 074°09'0 0.0
2015-Apr-13 03:33N 40°41' W 074°09'1 1.0
2015-Apr-13 02:33N 40°40' W 074°09'5 5.2
2015-Apr-13 01:33N 40°37' W 074°03'1111.1
2015-Apr-13 00:34N 40°29' W 073°53'8 8.2
2015-Apr-12 23:34N 40°27' W 073°43'8 8.4
2015-Apr-12 22:33N 40°27' W 073°32'1010.1
2015-Apr-12 21:33N 40°28' W 073°18'2913.8
2015-Apr-12 19:29N 40°30' W 072°41'1415.4
2015-Apr-12 18:33N 40°30' W 072°22'1515.4
2015-Apr-12 17:33N 40°31' W 072°02'1615.9
2015-Apr-12 16:33N 40°32' W 071°41'1716.8
2015-Apr-12 15:33N 40°32' W 071°19'1717.1
2015-Apr-12 14:33N 40°33' W 070°56'1817.5
2015-Apr-12 13:33N 40°33' W 070°33'1817.5
2015-Apr-12 12:33N 40°34' W 070°10'1918.0
2015-Apr-12 11:29N 40°34' W 069°45'1718.0
2015-Apr-12 10:31N 40°35' W 069°22'1717.6
2015-Apr-12 09:32N 40°36' W 068°59'  
2015-Apr-05 06:27N 49°56' W 003°19'1717.0
2015-Apr-05 05:27N 49°59' W 002°53'1617.6
2015-Apr-05 04:31N 50°02' W 002°28'6320.1
2015-Apr-05 01:23N 49°45' W 000°54'1619.8
2015-Apr-05 00:33N 49°38' W 000°31'1818.0
2015-Apr-04 23:33N 49°31' W 000°05'10 9.9
2015-Apr-04 22:32N 49°27' E 000°10'0 0.0
2015-Apr-04 21:32N 49°27' E 000°10'0 0.0
2015-Apr-04 20:32N 49°27' E 000°10'0 0.0
2015-Apr-04 19:32N 49°27' E 000°10'0 0.0
2015-Apr-04 18:32N 49°27' E 000°10'0 0.0
2015-Apr-04 17:32N 49°27' E 000°10'0 0.0
2015-Apr-04 16:32N 49°27' E 000°10'0 0.0
2015-Apr-04 15:32N 49°27' E 000°10'0 0.0
2015-Apr-04 14:32N 49°27' E 000°10'0 0.0
2015-Apr-04 13:32N 49°27' E 000°10'0 0.0
2015-Apr-04 12:32N 49°27' E 000°10'  
Track history (hours):
 
Tides and Currents Weather Stations Pressure Air Temp Water Temp Dewpoint Dewpoint Depression Visibility Wind Speed Wind Dir Waves Ship Positions

Cosco Nagoya

Last reported at 2015-Apr-14 12:06 UTC. Time now 2015-Apr-21 19:04 UTC.
Position N 38°40' W 073°57'.

Length 260 m; draft 10.7 m.

Type: Cargo ship. MMSI: 370320000.

Date/timePositionNaut miles runAvg speedWind from/ knotsBaromVisibWave heightAir tempDewpointWater temp
2015-Apr-14 12:06N 38°40' W 073°57'1117.9
2015-Apr-14 11:30N 38°50' W 073°56'1717.8
2015-Apr-14 10:33N 39°07' W 073°55'1817.6
2015-Apr-14 09:33N 39°25' W 073°54'1717.3
2015-Apr-14 08:33N 39°42' W 073°52'1717.4
2015-Apr-14 07:33N 39°59' W 073°51'1413.7
2015-Apr-14 06:33N 40°13' W 073°49'10 9.5
2015-Apr-14 05:33N 40°22' W 073°49'8 8.1
2015-Apr-14 04:34N 40°29' W 073°54'1211.7
2015-Apr-14 03:33N 40°38' W 074°04'5 4.5
2015-Apr-14 02:32N 40°41' W 074°09'0 0.0
2015-Apr-14 01:29N 40°41' W 074°09'0 0.0
2015-Apr-14 00:32N 40°41' W 074°09'0 0.0
2015-Apr-13 23:32N 40°41' W 074°09'0 0.0
2015-Apr-13 22:32N 40°41' W 074°09'0 0.0
2015-Apr-13 21:32N 40°41' W 074°09'0 0.0
2015-Apr-13 20:32N 40°41' W 074°09'0 0.0
2015-Apr-13 19:32N 40°41' W 074°09'0 0.0
2015-Apr-13 18:32N 40°41' W 074°09'0 0.0
2015-Apr-13 17:32N 40°41' W 074°09'0 0.0
2015-Apr-13 16:32N 40°41' W 074°09'0 0.0
2015-Apr-13 15:32N 40°41' W 074°09'0 0.0
2015-Apr-13 14:32N 40°41' W 074°09'0 0.0
2015-Apr-13 13:32N 40°41' W 074°09'0 0.0
2015-Apr-13 12:32N 40°41' W 074°09'0 0.0
2015-Apr-13 11:32N 40°41' W 074°09'0 0.0
2015-Apr-13 10:32N 40°41' W 074°09'0 0.0
2015-Apr-13 09:32N 40°41' W 074°09'0 0.0
2015-Apr-13 08:32N 40°41' W 074°09'0 0.0
2015-Apr-13 07:32N 40°41' W 074°09'0 0.0
2015-Apr-13 06:32N 40°41' W 074°09'0 0.0
2015-Apr-13 05:32N 40°41' W 074°09'0 0.0
2015-Apr-13 04:32N 40°41' W 074°09'0 0.0
2015-Apr-13 03:33N 40°41' W 074°09'1 1.0
2015-Apr-13 02:33N 40°40' W 074°09'5 5.2
2015-Apr-13 01:33N 40°37' W 074°03'1111.1
2015-Apr-13 00:34N 40°29' W 073°53'8 8.2
2015-Apr-12 23:34N 40°27' W 073°43'8 8.4
2015-Apr-12 22:33N 40°27' W 073°32'1010.1
2015-Apr-12 21:33N 40°28' W 073°18'2913.8
2015-Apr-12 19:29N 40°30' W 072°41'1415.4
2015-Apr-12 18:33N 40°30' W 072°22'1515.4
2015-Apr-12 17:33N 40°31' W 072°02'1615.9
2015-Apr-12 16:33N 40°32' W 071°41'1716.8
2015-Apr-12 15:33N 40°32' W 071°19'1717.1
2015-Apr-12 14:33N 40°33' W 070°56'1817.5
2015-Apr-12 13:33N 40°33' W 070°33'1817.5
2015-Apr-12 12:33N 40°34' W 070°10'1918.0
2015-Apr-12 11:29N 40°34' W 069°45'1718.0
2015-Apr-12 10:31N 40°35' W 069°22'1717.6
2015-Apr-12 09:32N 40°36' W 068°59'  
2015-Apr-05 06:27N 49°56' W 003°19'1717.0
2015-Apr-05 05:27N 49°59' W 002°53'1617.6
2015-Apr-05 04:31N 50°02' W 002°28'6320.1
2015-Apr-05 01:23N 49°45' W 000°54'1619.8
2015-Apr-05 00:33N 49°38' W 000°31'1818.0
2015-Apr-04 23:33N 49°31' W 000°05'10 9.9
2015-Apr-04 22:32N 49°27' E 000°10'0 0.0
2015-Apr-04 21:32N 49°27' E 000°10'0 0.0
2015-Apr-04 20:32N 49°27' E 000°10'0 0.0
2015-Apr-04 19:32N 49°27' E 000°10'0 0.0
2015-Apr-04 18:32N 49°27' E 000°10'0 0.0
2015-Apr-04 17:32N 49°27' E 000°10'0 0.0
2015-Apr-04 16:32N 49°27' E 000°10'0 0.0
2015-Apr-04 15:32N 49°27' E 000°10'0 0.0
2015-Apr-04 14:32N 49°27' E 000°10'0 0.0
2015-Apr-04 13:32N 49°27' E 000°10'0 0.0
2015-Apr-04 12:32N 49°27' E 000°10'  

Dump ship's entire track history